Time;durP1;ratioP1;P1;durP2;ratioP2;P2;SDS_P1;SDS_P2;PMS_P1;PMS_P2;Temp;Humidity;BMP_temperature;BMP_pressure;BME280_temperature;BME280_humidity;BME280_pressure;Samples;Min_cycle;Max_cycle;Signal;HPM_P1;HPM_P2
2021/01/11 00:01:54;;;;;;;21.92;12.40;;;2.40;99.90;;;;;;4958687;28;20217;-86
2021/01/11 00:04:24;;;;;;;21.80;14.05;;;2.40;99.90;;;;;;4974625;28;20195;-85
2021/01/11 00:11:42;;;;;;;21.05;13.05;;;2.50;99.90;;;;;;4969756;28;20178;-85
2021/01/11 00:15:10;;;;;;;23.52;13.23;;;2.50;99.90;;;;;;4978670;28;20238;-86
2021/01/11 00:17:37;;;;;;;22.90;13.35;;;2.50;99.90;;;;;;4975200;28;20190;-85
2021/01/11 00:20:39;;;;;;;29.23;13.60;;;2.50;99.90;;;;;;4957736;28;20226;-86
2021/01/11 00:23:09;;;;;;;25.80;14.60;;;2.40;99.90;;;;;;4963572;28;20191;-86
2021/01/11 00:28:35;;;;;;;24.40;15.20;;;2.40;99.90;;;;;;4940348;29;20178;-85
2021/01/11 00:31:03;;;;;;;27.88;13.77;;;2.70;99.90;;;;;;4966808;28;20179;-85
2021/01/11 00:33:35;;;;;;;26.27;14.73;;;2.50;99.90;;;;;;4943966;28;20279;-84
2021/01/11 00:36:58;;;;;;;25.73;14.45;;;2.40;99.90;;;;;;4959641;28;20199;-86
2021/01/11 00:39:38;;;;;;;26.08;14.10;;;2.40;99.90;;;;;;4970475;28;20269;-85
2021/01/11 00:42:21;;;;;;;23.48;14.48;;;2.40;99.90;;;;;;4970179;28;20180;-85
2021/01/11 00:44:50;;;;;;;21.20;13.88;;;2.50;99.90;;;;;;4970867;28;20283;-84
2021/01/11 00:47:16;;;;;;;23.63;14.07;;;2.50;99.90;;;;;;4955021;29;20224;-83
2021/01/11 00:50:05;;;;;;;21.00;14.85;;;2.50;99.90;;;;;;4950287;29;20188;-84
2021/01/11 00:52:36;;;;;;;27.15;14.50;;;2.70;99.90;;;;;;4957688;28;20206;-84
2021/01/11 00:55:10;;;;;;;26.95;14.63;;;2.70;99.90;;;;;;4975384;28;20171;-84
2021/01/11 00:57:46;;;;;;;22.80;14.35;;;2.40;99.90;;;;;;4973025;28;20214;-83
2021/01/11 01:00:21;;;;;;;29.27;16.10;;;2.80;99.90;;;;;;4938831;29;20214;-84
2021/01/11 01:03:00;;;;;;;23.23;14.32;;;2.60;99.90;;;;;;4949242;28;20293;-84
2021/01/11 01:05:29;;;;;;;26.08;15.48;;;2.10;99.90;;;;;;4971617;28;20220;-84
2021/01/11 01:08:21;;;;;;;22.33;13.60;;;2.60;99.90;;;;;;4955391;28;20199;-84
2021/01/11 01:10:49;;;;;;;21.05;14.10;;;2.70;99.90;;;;;;4977342;28;20190;-84
2021/01/11 01:13:17;;;;;;;24.80;15.65;;;2.50;99.90;;;;;;4957346;28;20274;-84
2021/01/11 01:15:43;;;;;;;22.48;13.88;;;2.70;99.90;;;;;;4955342;28;20190;-84
2021/01/11 01:18:09;;;;;;;26.50;14.25;;;2.70;99.90;;;;;;4938536;29;20518;-85
2021/01/11 01:20:37;;;;;;;23.63;15.55;;;2.60;99.90;;;;;;4941971;28;20188;-84
2021/01/11 01:23:06;;;;;;;22.88;13.27;;;2.50;99.90;;;;;;4939250;29;20183;-84
2021/01/11 01:25:32;;;;;;;26.57;16.87;;;2.60;99.90;;;;;;4972080;28;20801;-85
2021/01/11 01:28:02;;;;;;;24.35;13.88;;;2.50;99.90;;;;;;4958206;28;20921;-84
2021/01/11 01:30:30;;;;;;;22.05;15.52;;;2.80;99.90;;;;;;4974364;28;20187;-84
2021/01/11 01:32:59;;;;;;;24.90;15.07;;;2.90;99.90;;;;;;4960656;28;20200;-85
2021/01/11 01:35:30;;;;;;;50.95;18.60;;;2.70;99.90;;;;;;4958434;28;20625;-84
2021/01/11 01:38:01;;;;;;;26.52;16.88;;;2.40;99.90;;;;;;4976659;28;20387;-85
2021/01/11 01:40:27;;;;;;;27.27;16.67;;;2.70;99.90;;;;;;4991048;28;20193;-84
2021/01/11 01:42:56;;;;;;;27.38;18.25;;;2.60;99.90;;;;;;4995180;28;20252;-84
2021/01/11 01:45:27;;;;;;;27.13;17.38;;;2.50;99.90;;;;;;4978132;28;20187;-84
2021/01/11 01:47:59;;;;;;;29.25;17.92;;;2.50;99.90;;;;;;4959668;28;20179;-84
2021/01/11 01:50:25;;;;;;;25.95;16.52;;;2.80;99.90;;;;;;4957949;29;20184;-84
2021/01/11 01:52:58;;;;;;;30.40;18.60;;;2.60;99.90;;;;;;4977682;28;20254;-84
2021/01/11 01:55:31;;;;;;;29.38;17.80;;;2.50;99.90;;;;;;4969425;28;20176;-84
2021/01/11 01:58:02;;;;;;;29.83;18.88;;;2.40;99.90;;;;;;4971176;28;20197;-84
2021/01/11 02:00:29;;;;;;;31.98;19.08;;;2.70;99.90;;;;;;4977003;28;20184;-84
2021/01/11 02:02:55;;;;;;;32.20;19.90;;;2.80;99.90;;;;;;4959177;28;20253;-84
2021/01/11 02:05:30;;;;;;;32.08;19.35;;;2.50;99.90;;;;;;4942492;29;20183;-83
2021/01/11 02:08:19;;;;;;;34.38;19.90;;;2.70;99.90;;;;;;4962144;28;20184;-84
2021/01/11 02:11:08;;;;;;;30.92;18.42;;;2.50;99.90;;;;;;4973006;28;20202;-84
2021/01/11 02:13:50;;;;;;;31.98;18.40;;;2.70;99.90;;;;;;4947107;28;20184;-84
2021/01/11 02:16:23;;;;;;;32.70;19.30;;;2.50;99.90;;;;;;4967909;28;20180;-83
2021/01/11 02:19:05;;;;;;;26.98;18.30;;;2.40;99.90;;;;;;4962840;28;20358;-83
2021/01/11 02:22:17;;;;;;;29.88;18.67;;;2.50;99.90;;;;;;4977204;28;20182;-83
2021/01/11 02:25:45;;;;;;;28.17;17.92;;;2.60;99.90;;;;;;4963024;28;20190;-83
2021/01/11 02:28:25;;;;;;;39.42;21.17;;;2.40;99.90;;;;;;4972096;28;20292;-84
2021/01/11 02:30:58;;;;;;;34.60;20.95;;;2.60;99.90;;;;;;4956200;28;20200;-84
2021/01/11 02:33:29;;;;;;;33.45;19.15;;;2.60;99.90;;;;;;4975234;28;20196;-84
2021/01/11 02:36:10;;;;;;;34.63;19.92;;;2.40;99.90;;;;;;4975414;28;20218;-84
2021/01/11 02:38:39;;;;;;;32.88;19.40;;;2.50;99.90;;;;;;4973221;28;20199;-84
2021/01/11 02:41:07;;;;;;;29.48;18.48;;;2.40;99.90;;;;;;4975159;28;20226;-84
2021/01/11 02:43:36;;;;;;;34.60;20.48;;;2.30;99.90;;;;;;4975322;28;20221;-85
2021/01/11 02:46:02;;;;;;;33.92;19.58;;;2.40;99.90;;;;;;4974843;28;20222;-84
2021/01/11 02:48:34;;;;;;;31.57;19.20;;;2.30;99.90;;;;;;4975093;28;20191;-84
2021/01/11 02:51:21;;;;;;;34.08;20.45;;;2.50;99.90;;;;;;4943127;28;20999;-84
2021/01/11 02:53:59;;;;;;;31.40;20.40;;;2.30;99.90;;;;;;4975239;28;20194;-84
2021/01/11 02:56:48;;;;;;;36.25;20.63;;;2.30;99.90;;;;;;4974816;28;20199;-84
2021/01/11 02:59:39;;;;;;;31.85;20.23;;;2.40;99.90;;;;;;4976021;28;20190;-84
2021/01/11 03:02:12;;;;;;;31.63;20.27;;;2.30;99.90;;;;;;4975813;28;20225;-83
2021/01/11 03:04:50;;;;;;;36.97;20.95;;;2.40;99.90;;;;;;4965418;28;20229;-84
2021/01/11 03:07:23;;;;;;;31.80;19.33;;;2.30;99.90;;;;;;4956777;29;20211;-84
2021/01/11 03:09:54;;;;;;;34.40;21.67;;;2.30;99.90;;;;;;4978800;28;20195;-84
2021/01/11 03:12:24;;;;;;;33.08;19.80;;;1.90;99.90;;;;;;4959781;28;20175;-85
2021/01/11 03:14:53;;;;;;;34.85;21.63;;;2.30;99.90;;;;;;4928958;28;20209;-84
2021/01/11 03:17:18;;;;;;;33.88;20.35;;;2.50;99.90;;;;;;4971618;28;20219;-87
2021/01/11 03:19:49;;;;;;;34.38;20.85;;;2.40;99.90;;;;;;4977131;28;20198;-88
2021/01/11 03:22:15;;;;;;;35.88;21.40;;;2.40;99.90;;;;;;4957128;28;20180;-88
2021/01/11 03:24:41;;;;;;;36.30;22.27;;;2.30;99.90;;;;;;4967995;28;20179;-88
2021/01/11 03:27:07;;;;;;;35.90;21.73;;;2.40;99.90;;;;;;4977829;28;20470;-88
2021/01/11 03:29:35;;;;;;;36.78;21.70;;;2.50;99.90;;;;;;4977983;28;20427;-89
2021/01/11 03:32:01;;;;;;;36.30;22.17;;;2.20;99.90;;;;;;4978439;28;20183;-89
2021/01/11 03:34:32;;;;;;;34.25;21.20;;;2.50;99.90;;;;;;4958002;28;20427;-89
2021/01/11 03:36:58;;;;;;;43.03;24.10;;;2.40;99.90;;;;;;4958199;28;21043;-88
2021/01/11 03:39:23;;;;;;;38.20;23.30;;;2.20;99.90;;;;;;4963340;28;20199;-90
2021/01/11 03:41:49;;;;;;;36.70;24.47;;;2.50;99.90;;;;;;4958711;28;20439;-90
2021/01/11 03:44:18;;;;;;;39.83;25.10;;;2.30;99.90;;;;;;4973833;28;20427;-91
2021/01/11 03:46:44;;;;;;;39.13;23.57;;;2.40;99.90;;;;;;4972398;28;20285;-89
2021/01/11 03:49:12;;;;;;;40.50;22.80;;;2.30;99.90;;;;;;4977043;28;20454;-90
2021/01/11 03:51:38;;;;;;;42.80;24.15;;;2.20;99.90;;;;;;4958543;28;20924;-90
2021/01/11 03:54:04;;;;;;;41.67;24.00;;;2.40;99.90;;;;;;4958911;28;20199;-89
2021/01/11 03:56:32;;;;;;;37.97;23.73;;;2.50;99.90;;;;;;4957750;29;20916;-89
2021/01/11 03:58:58;;;;;;;44.83;24.17;;;2.30;99.90;;;;;;4957338;28;20192;-88
2021/01/11 04:01:26;;;;;;;41.97;25.60;;;2.20;99.90;;;;;;4941702;29;20438;-90
2021/01/11 04:03:56;;;;;;;42.38;24.58;;;2.20;99.90;;;;;;4957926;28;20475;-89
2021/01/11 04:06:24;;;;;;;41.95;25.58;;;2.00;99.90;;;;;;4963902;28;20206;-89
2021/01/11 04:08:53;;;;;;;40.10;24.10;;;2.10;99.90;;;;;;4971727;28;20319;-90
2021/01/11 04:11:20;;;;;;;41.63;23.80;;;1.90;99.90;;;;;;4968331;28;20179;-88
2021/01/11 04:13:49;;;;;;;39.90;25.55;;;1.90;99.90;;;;;;4976510;28;20198;-89
2021/01/11 04:16:15;;;;;;;40.33;24.55;;;2.20;99.90;;;;;;4976861;28;20224;-88
2021/01/11 04:18:44;;;;;;;40.03;24.13;;;1.80;99.90;;;;;;4960460;28;20542;-91
2021/01/11 04:21:13;;;;;;;40.50;24.10;;;1.90;99.90;;;;;;4977108;28;20206;-90
2021/01/11 04:23:40;;;;;;;41.78;24.40;;;2.00;99.90;;;;;;4977036;28;20278;-90
2021/01/11 04:26:09;;;;;;;41.15;23.52;;;1.50;99.90;;;;;;4976987;28;20303;-89
2021/01/11 04:28:35;;;;;;;39.38;24.70;;;2.20;99.90;;;;;;4977281;28;20270;-89
2021/01/11 04:31:02;;;;;;;39.47;24.33;;;2.00;99.90;;;;;;4976302;28;20600;-89
2021/01/11 04:33:28;;;;;;;40.22;26.17;;;2.20;99.90;;;;;;4969878;28;20430;-89
2021/01/11 04:35:59;;;;;;;39.83;24.50;;;1.90;99.90;;;;;;4976609;28;20176;-89
2021/01/11 04:38:25;;;;;;;41.47;24.48;;;2.20;99.90;;;;;;4976768;28;20183;-89
2021/01/11 04:40:53;;;;;;;40.38;25.35;;;2.20;99.90;;;;;;4972197;28;20180;-90
2021/01/11 04:43:20;;;;;;;36.15;24.00;;;2.40;99.90;;;;;;4957200;28;20191;-89
2021/01/11 04:45:46;;;;;;;38.25;24.88;;;2.30;99.90;;;;;;4959795;28;20343;-88
2021/01/11 04:48:13;;;;;;;47.08;27.13;;;2.30;99.90;;;;;;4976872;28;20262;-88
2021/01/11 04:50:41;;;;;;;43.85;25.10;;;2.20;99.90;;;;;;4976210;28;20190;-89
2021/01/11 04:53:09;;;;;;;46.03;26.77;;;2.20;99.90;;;;;;4959974;28;20194;-88
2021/01/11 04:55:37;;;;;;;46.90;26.17;;;1.90;99.90;;;;;;4959992;28;20256;-88
2021/01/11 04:58:07;;;;;;;38.70;23.77;;;2.10;99.90;;;;;;4956346;29;20212;-87
2021/01/11 05:00:37;;;;;;;39.00;24.33;;;2.10;99.90;;;;;;4974336;28;20191;-87
2021/01/11 05:03:08;;;;;;;40.28;24.52;;;2.20;99.90;;;;;;4976060;28;20340;-86
2021/01/11 05:05:37;;;;;;;42.08;25.63;;;2.00;99.90;;;;;;4961454;28;20176;-87
2021/01/11 05:08:03;;;;;;;39.90;25.80;;;2.20;99.90;;;;;;4956545;29;20190;-89
2021/01/11 05:10:36;;;;;;;36.80;22.20;;;2.10;99.90;;;;;;4976532;28;20222;-90
2021/01/11 05:13:08;;;;;;;34.40;22.15;;;2.30;99.90;;;;;;4965592;28;20168;-90
2021/01/11 05:16:41;;;;;;;39.45;24.70;;;2.30;99.90;;;;;;4979983;28;20190;-89
2021/01/11 05:19:26;;;;;;;39.10;23.13;;;2.00;99.90;;;;;;4961993;28;20501;-89
2021/01/11 05:21:54;;;;;;;37.00;22.90;;;2.20;99.90;;;;;;4973044;28;20278;-88
2021/01/11 05:24:40;;;;;;;44.97;25.20;;;2.10;99.90;;;;;;4979598;28;20214;-88
2021/01/11 05:27:07;;;;;;;37.40;23.08;;;1.50;99.90;;;;;;4972104;28;20447;-89
2021/01/11 05:29:35;;;;;;;40.03;22.27;;;2.10;99.90;;;;;;4970625;28;20273;-87
2021/01/11 05:32:05;;;;;;;40.90;23.90;;;2.00;99.90;;;;;;4965648;28;20194;-87
2021/01/11 05:34:52;;;;;;;39.33;24.40;;;2.00;99.90;;;;;;4960735;28;20267;-87
2021/01/11 05:37:38;;;;;;;42.50;24.10;;;2.20;99.90;;;;;;4966353;28;20615;-88
2021/01/11 05:40:18;;;;;;;43.38;24.70;;;2.10;99.90;;;;;;4978983;28;20191;-88
2021/01/11 05:42:53;;;;;;;42.58;23.30;;;2.00;99.90;;;;;;4963320;28;20186;-88
2021/01/11 05:45:22;;;;;;;46.60;26.33;;;2.10;99.90;;;;;;4979744;28;20245;-87
2021/01/11 05:47:55;;;;;;;45.20;24.60;;;2.10;99.90;;;;;;4979854;28;20186;-87
2021/01/11 05:50:38;;;;;;;49.78;25.80;;;2.10;99.90;;;;;;4978856;28;20190;-88
2021/01/11 05:53:31;;;;;;;46.20;25.58;;;2.10;99.90;;;;;;4976710;28;20519;-87
2021/01/11 05:56:01;;;;;;;43.90;24.23;;;2.10;99.90;;;;;;4980017;28;20492;-87
2021/01/11 05:58:27;;;;;;;56.33;27.73;;;2.10;99.90;;;;;;4978812;28;20199;-87
2021/01/11 06:00:53;;;;;;;45.27;26.20;;;2.10;99.90;;;;;;4978858;28;20325;-88
2021/01/11 06:03:19;;;;;;;49.20;28.00;;;2.10;99.90;;;;;;4964899;28;20982;-88
2021/01/11 06:05:47;;;;;;;60.22;28.20;;;2.10;99.90;;;;;;4974223;28;20217;-88
2021/01/11 06:08:18;;;;;;;50.85;28.00;;;2.10;99.90;;;;;;4978759;28;20484;-88
2021/01/11 06:10:44;;;;;;;50.38;28.08;;;2.10;99.90;;;;;;4979434;28;20218;-87
2021/01/11 06:13:11;;;;;;;49.63;28.27;;;2.20;99.90;;;;;;4961932;28;20211;-88
2021/01/11 06:15:42;;;;;;;46.63;28.02;;;2.30;99.90;;;;;;4960310;28;20194;-88
2021/01/11 06:18:10;;;;;;;58.95;29.35;;;2.20;99.90;;;;;;4959116;29;20192;-88
2021/01/11 06:20:43;;;;;;;44.13;27.20;;;2.10;99.90;;;;;;4959478;28;20231;-87
2021/01/11 06:23:13;;;;;;;51.28;26.88;;;2.10;99.90;;;;;;4959716;28;20271;-87
2021/01/11 06:25:43;;;;;;;45.50;25.85;;;2.20;99.90;;;;;;4958877;29;20236;-89
2021/01/11 06:28:13;;;;;;;44.33;27.48;;;2.10;99.90;;;;;;4959944;28;20188;-88
2021/01/11 06:30:46;;;;;;;46.40;26.80;;;2.20;99.90;;;;;;4977224;28;20167;-89
2021/01/11 06:33:27;;;;;;;42.10;25.50;;;2.30;99.90;;;;;;4979000;28;20168;-89
2021/01/11 06:35:54;;;;;;;39.30;25.08;;;2.40;99.90;;;;;;4979351;28;20258;-89
2021/01/11 06:38:31;;;;;;;38.05;24.05;;;2.40;99.90;;;;;;4978017;28;20187;-88
2021/01/11 06:41:03;;;;;;;45.78;24.27;;;2.20;99.90;;;;;;4979042;28;20202;-90
2021/01/11 06:43:53;;;;;;;43.30;25.58;;;2.30;99.90;;;;;;4961959;28;20222;-87
2021/01/11 06:46:28;;;;;;;46.83;23.88;;;2.40;99.90;;;;;;4978658;28;20199;-89
2021/01/11 06:49:02;;;;;;;39.58;23.73;;;2.10;99.90;;;;;;4978318;28;20201;-89
2021/01/11 06:51:42;;;;;;;40.30;25.40;;;2.20;99.90;;;;;;4969186;28;20567;-90
2021/01/11 06:54:11;;;;;;;38.08;23.88;;;2.10;99.90;;;;;;4943349;28;20190;-88
2021/01/11 06:56:40;;;;;;;39.15;22.23;;;2.40;99.90;;;;;;4959247;28;20291;-88
2021/01/11 06:59:16;;;;;;;37.58;22.55;;;2.20;99.90;;;;;;4977992;28;20262;-89
2021/01/11 07:01:46;;;;;;;42.25;22.50;;;2.30;99.90;;;;;;4977881;28;20299;-88
2021/01/11 07:04:35;;;;;;;41.22;22.98;;;2.30;99.90;;;;;;4977614;28;20186;-88
2021/01/11 07:07:02;;;;;;;39.08;21.50;;;2.20;99.90;;;;;;4978595;28;20234;-87
2021/01/11 07:09:31;;;;;;;38.40;22.98;;;2.40;99.90;;;;;;4977734;28;20622;-88
2021/01/11 07:12:06;;;;;;;36.28;20.13;;;2.10;99.90;;;;;;4978504;28;20622;-88
2021/01/11 07:15:06;;;;;;;33.83;20.75;;;2.50;99.90;;;;;;4993837;28;20202;-88
2021/01/11 07:17:43;;;;;;;34.28;21.13;;;2.50;99.90;;;;;;4977374;28;20187;-87
2021/01/11 07:20:14;;;;;;;33.33;21.75;;;2.20;99.90;;;;;;4978219;28;20198;-88
2021/01/11 07:22:42;;;;;;;38.85;26.40;;;2.20;99.90;;;;;;4993187;28;20516;-87
2021/01/11 07:25:22;;;;;;;36.40;21.58;;;2.40;99.90;;;;;;4978417;28;20197;-87
2021/01/11 07:27:56;;;;;;;32.22;21.70;;;2.60;99.90;;;;;;4990800;28;20245;-87
2021/01/11 07:30:25;;;;;;;35.20;21.40;;;2.40;99.90;;;;;;4985605;28;20174;-87
2021/01/11 07:32:55;;;;;;;30.73;20.50;;;2.70;99.90;;;;;;4982832;28;20265;-87
2021/01/11 07:35:23;;;;;;;33.50;20.25;;;2.40;99.90;;;;;;4953512;28;20202;-86
2021/01/11 07:37:49;;;;;;;30.42;19.77;;;2.60;99.90;;;;;;4982265;28;20198;-86
2021/01/11 07:40:16;;;;;;;35.40;20.50;;;2.50;99.90;;;;;;4990474;28;20273;-82
2021/01/11 07:42:42;;;;;;;29.92;19.60;;;2.70;99.90;;;;;;4982749;28;20782;-83
2021/01/11 07:45:14;;;;;;;31.60;19.00;;;2.40;99.90;;;;;;4976045;28;20194;-84
2021/01/11 07:47:41;;;;;;;28.67;17.17;;;2.30;99.90;;;;;;4985221;28;20477;-82
2021/01/11 07:50:08;;;;;;;31.40;19.45;;;2.40;99.90;;;;;;4982144;28;20182;-81
2021/01/11 07:52:34;;;;;;;25.92;17.95;;;2.60;99.90;;;;;;4982275;28;20192;-82
2021/01/11 07:55:03;;;;;;;35.80;19.13;;;2.40;99.90;;;;;;4984715;28;20198;-82
2021/01/11 07:57:30;;;;;;;27.90;18.35;;;2.50;99.90;;;;;;4992930;28;20445;-88
2021/01/11 07:59:59;;;;;;;31.20;19.20;;;2.40;99.90;;;;;;4986808;28;20560;-95
2021/01/11 08:02:32;;;;;;;33.05;19.60;;;2.30;99.90;;;;;;4996864;28;20727;-92
2021/01/11 08:05:03;;;;;;;31.55;18.77;;;2.50;99.90;;;;;;4982480;28;20202;-89
2021/01/11 08:07:31;;;;;;;32.55;19.80;;;2.50;99.90;;;;;;4994117;28;20226;-93
2021/01/11 08:10:01;;;;;;;29.73;19.05;;;2.50;99.90;;;;;;4990062;28;20294;-91
2021/01/11 08:12:28;;;;;;;30.02;18.50;;;2.40;99.90;;;;;;4996219;28;20624;-90
2021/01/11 08:15:04;;;;;;;33.95;18.40;;;2.50;99.90;;;;;;4987073;28;20244;-93
2021/01/11 08:17:32;;;;;;;32.25;19.92;;;2.30;99.90;;;;;;4986821;28;20573;-93
2021/01/11 08:20:03;;;;;;;34.20;20.63;;;2.50;99.90;;;;;;4987587;28;20249;-88
2021/01/11 08:22:29;;;;;;;28.10;18.40;;;2.40;99.90;;;;;;4986830;28;20199;-92
2021/01/11 08:24:56;;;;;;;36.80;20.53;;;2.60;99.90;;;;;;4983400;28;20642;-91
2021/01/11 08:27:36;;;;;;;32.80;19.92;;;2.30;99.90;;;;;;4980979;28;20544;-89
2021/01/11 08:30:24;;;;;;;32.38;19.10;;;2.50;99.90;;;;;;4984209;28;20198;-92
2021/01/11 08:32:51;;;;;;;36.85;20.17;;;2.30;99.90;;;;;;4984734;28;20190;-89
2021/01/11 08:35:23;;;;;;;31.30;20.23;;;2.40;99.90;;;;;;4982774;28;20201;-90
2021/01/11 08:37:49;;;;;;;32.78;20.33;;;2.30;99.90;;;;;;4985166;28;20594;-93
2021/01/11 08:40:29;;;;;;;34.83;18.85;;;2.30;99.90;;;;;;4975269;28;20497;-88
2021/01/11 08:43:13;;;;;;;36.63;20.48;;;2.40;99.90;;;;;;4992804;28;20536;-92
2021/01/11 08:45:44;;;;;;;32.50;18.83;;;1.90;99.90;;;;;;4980911;28;20234;-93
2021/01/11 08:48:18;;;;;;;30.05;18.38;;;2.60;99.90;;;;;;4976610;28;20281;-93
2021/01/11 08:50:58;;;;;;;36.60;19.48;;;2.30;99.90;;;;;;4978580;28;20186;-85
2021/01/11 08:53:37;;;;;;;31.92;18.00;;;2.30;99.90;;;;;;4994557;28;20249;-91
2021/01/11 08:56:09;;;;;;;30.48;18.77;;;2.10;99.90;;;;;;4969794;28;20943;-82
2021/01/11 08:58:46;;;;;;;35.83;19.42;;;2.30;99.90;;;;;;4983846;28;20278;-82
2021/01/11 09:01:13;;;;;;;34.28;20.30;;;2.30;99.90;;;;;;4977184;28;20209;-91
2021/01/11 09:03:52;;;;;;;35.22;19.90;;;2.40;99.90;;;;;;4985811;28;20727;-89
2021/01/11 09:06:44;;;;;;;29.95;18.88;;;2.40;99.90;;;;;;4982829;28;20734;-87
2021/01/11 09:09:15;;;;;;;29.73;17.33;;;2.50;99.90;;;;;;4980281;28;20269;-86
2021/01/11 09:11:45;;;;;;;28.67;17.05;;;2.70;99.90;;;;;;4982275;28;20187;-92
2021/01/11 09:14:13;;;;;;;27.42;16.25;;;2.50;99.90;;;;;;4989263;28;20249;-91
2021/01/11 09:16:40;;;;;;;25.92;16.02;;;2.50;99.90;;;;;;4984082;28;20190;-91
2021/01/11 09:19:15;;;;;;;26.65;15.10;;;2.70;99.90;;;;;;4985046;28;20273;-92
2021/01/11 09:21:42;;;;;;;32.83;17.33;;;2.50;99.90;;;;;;4974915;28;20194;-84
2021/01/11 09:24:14;;;;;;;25.85;16.02;;;2.50;99.90;;;;;;4973741;28;20539;-83
2021/01/11 09:26:47;;;;;;;25.67;16.42;;;2.60;99.90;;;;;;4985202;28;20206;-87
2021/01/11 09:29:15;;;;;;;23.98;15.80;;;2.60;99.90;;;;;;4973663;28;20214;-85
2021/01/11 09:31:42;;;;;;;25.38;16.38;;;2.50;99.90;;;;;;4983692;28;20282;-86
2021/01/11 09:34:14;;;;;;;25.58;15.45;;;2.80;99.90;;;;;;4985508;28;20194;-86
2021/01/11 09:36:40;;;;;;;28.90;17.50;;;2.60;99.90;;;;;;4976147;28;20195;-86
2021/01/11 09:39:08;;;;;;;26.92;15.95;;;2.50;99.90;;;;;;4988813;28;20183;-85
2021/01/11 09:41:50;;;;;;;26.50;16.17;;;2.60;99.90;;;;;;4986653;28;20245;-84
2021/01/11 09:44:17;;;;;;;24.45;15.15;;;2.60;99.90;;;;;;4975115;28;20226;-86
2021/01/11 09:46:47;;;;;;;26.98;14.75;;;2.70;99.90;;;;;;4977941;28;20222;-83
2021/01/11 09:49:17;;;;;;;24.95;15.82;;;2.70;99.90;;;;;;4975841;28;20283;-81
2021/01/11 09:51:43;;;;;;;22.88;15.00;;;2.60;99.90;;;;;;4995774;28;20202;-90
2021/01/11 09:54:09;;;;;;;24.35;16.40;;;2.60;99.90;;;;;;4976707;28;20252;-82
2021/01/11 09:56:36;;;;;;;24.30;14.98;;;2.70;99.90;;;;;;4986942;28;20218;-86
2021/01/11 09:59:06;;;;;;;27.67;16.40;;;2.90;99.90;;;;;;4983646;28;20191;-82
2021/01/11 10:01:47;;;;;;;29.23;14.77;;;2.90;99.90;;;;;;4977425;28;20299;-81
2021/01/11 10:04:15;;;;;;;19.52;13.65;;;2.80;99.90;;;;;;4984323;28;20244;-84
2021/01/11 10:06:50;;;;;;;25.08;15.18;;;2.70;99.90;;;;;;4989573;28;20222;-84
2021/01/11 10:09:19;;;;;;;23.85;14.10;;;2.80;99.90;;;;;;4981945;28;20327;-89
2021/01/11 10:11:54;;;;;;;21.98;13.05;;;3.00;99.90;;;;;;4986967;28;20218;-83
2021/01/11 10:14:21;;;;;;;22.17;13.55;;;2.80;99.90;;;;;;4985155;28;20190;-86
2021/01/11 10:16:52;;;;;;;24.50;13.82;;;2.90;99.90;;;;;;4990349;28;20190;-86
2021/01/11 10:19:32;;;;;;;21.70;13.50;;;2.40;99.90;;;;;;4990320;28;20209;-88
2021/01/11 10:22:02;;;;;;;24.50;13.73;;;3.00;99.90;;;;;;4992928;28;20187;-85
2021/01/11 10:24:28;;;;;;;26.13;14.10;;;2.90;99.90;;;;;;4972712;28;20275;-87
2021/01/11 10:26:54;;;;;;;20.50;12.95;;;3.10;99.90;;;;;;4976640;28;20217;-87
2021/01/11 10:29:25;;;;;;;20.73;13.20;;;3.00;99.90;;;;;;4977188;28;20247;-85
2021/01/11 10:31:52;;;;;;;19.83;13.20;;;3.00;99.90;;;;;;4985126;28;20507;-88
2021/01/11 10:34:23;;;;;;;18.90;12.23;;;3.10;99.90;;;;;;4986116;28;20179;-88
2021/01/11 10:37:20;;;;;;;19.50;12.60;;;3.00;99.90;;;;;;5000022;28;20727;-90
2021/01/11 10:39:48;;;;;;;16.45;11.70;;;3.00;99.90;;;;;;4997508;28;20198;-89
2021/01/11 10:42:16;;;;;;;23.88;13.70;;;2.80;99.90;;;;;;4989743;28;20281;-91
2021/01/11 10:44:42;;;;;;;20.50;12.20;;;2.80;99.90;;;;;;4984930;28;20327;-94
2021/01/11 10:47:11;;;;;;;28.58;14.98;;;3.00;99.90;;;;;;4982332;28;20246;-89
2021/01/11 10:49:39;;;;;;;21.42;12.18;;;3.10;99.90;;;;;;4988104;28;20670;-88
2021/01/11 10:52:06;;;;;;;21.33;12.85;;;3.20;99.90;;;;;;4997529;28;20202;-90
2021/01/11 10:54:34;;;;;;;19.92;13.20;;;3.10;99.90;;;;;;4992555;28;20263;-85
2021/01/11 10:57:00;;;;;;;21.90;13.73;;;3.00;99.90;;;;;;4985419;28;20191;-84
2021/01/11 10:59:29;;;;;;;19.27;12.63;;;3.10;99.90;;;;;;5002737;28;20209;-84
2021/01/11 11:01:55;;;;;;;20.92;11.52;;;3.00;99.90;;;;;;4985899;28;20469;-85
2021/01/11 11:04:23;;;;;;;18.40;11.87;;;3.10;99.90;;;;;;4988335;28;20431;-84
2021/01/11 11:06:50;;;;;;;17.67;11.90;;;3.20;99.90;;;;;;4974458;28;20564;-84
2021/01/11 11:09:18;;;;;;;15.98;11.43;;;3.10;99.90;;;;;;4980229;28;20186;-86
2021/01/11 11:11:52;;;;;;;16.80;10.77;;;3.20;99.90;;;;;;4981842;28;20218;-87
2021/01/11 11:14:18;;;;;;;20.13;11.82;;;3.00;99.90;;;;;;4992055;28;20429;-89
2021/01/11 11:16:44;;;;;;;18.80;11.07;;;3.20;99.90;;;;;;4986118;28;20191;-87
2021/01/11 11:19:12;;;;;;;16.40;11.60;;;3.40;99.90;;;;;;4998727;28;20187;-89
2021/01/11 11:21:42;;;;;;;16.95;10.98;;;3.20;99.90;;;;;;4965943;28;20211;-88
2021/01/11 11:24:11;;;;;;;13.90;10.07;;;3.20;99.90;;;;;;4998552;28;20205;-88
2021/01/11 11:26:37;;;;;;;16.40;10.80;;;3.10;99.90;;;;;;4988880;28;20214;-88
2021/01/11 11:29:03;;;;;;;16.27;11.40;;;3.30;99.90;;;;;;4982216;28;20788;-88
2021/01/11 11:31:33;;;;;;;18.60;11.93;;;3.50;99.90;;;;;;4984159;28;20434;-88
2021/01/11 11:33:59;;;;;;;15.52;11.38;;;3.30;99.90;;;;;;4979112;28;20206;-89
2021/01/11 11:36:25;;;;;;;15.85;10.63;;;3.20;99.90;;;;;;4992385;28;20574;-88
2021/01/11 11:38:53;;;;;;;16.00;10.53;;;2.90;99.90;;;;;;4975876;28;20286;-88
2021/01/11 11:41:20;;;;;;;16.33;11.30;;;3.50;99.90;;;;;;4972835;28;20435;-88
2021/01/11 11:43:48;;;;;;;17.92;12.35;;;3.30;99.90;;;;;;4979603;28;20204;-89
2021/01/11 11:46:14;;;;;;;16.83;11.80;;;3.40;99.90;;;;;;4983107;28;20215;-88
2021/01/11 11:48:42;;;;;;;19.30;11.50;;;3.40;99.90;;;;;;4987389;28;20453;-88
2021/01/11 11:51:08;;;;;;;18.65;10.27;;;3.60;99.90;;;;;;4982394;28;20199;-88
2021/01/11 11:53:38;;;;;;;17.63;10.10;;;3.40;99.90;;;;;;4975679;28;20187;-88
2021/01/11 11:56:07;;;;;;;14.90;10.48;;;3.50;99.90;;;;;;4981844;28;20201;-88
2021/01/11 11:58:35;;;;;;;16.23;10.35;;;3.70;99.90;;;;;;4983743;28;20190;-88
2021/01/11 12:01:01;;;;;;;17.40;11.60;;;3.50;99.90;;;;;;4985409;28;20187;-86
2021/01/11 12:03:27;;;;;;;15.45;9.73;;;3.40;99.90;;;;;;4987465;28;20312;-87
2021/01/11 12:05:55;;;;;;;15.60;11.70;;;3.60;99.90;;;;;;4988262;28;20209;-87
2021/01/11 12:08:21;;;;;;;15.10;9.98;;;3.60;99.90;;;;;;4976648;28;20557;-89
2021/01/11 12:10:50;;;;;;;16.90;11.02;;;3.50;99.90;;;;;;4985706;28;20241;-88
2021/01/11 12:13:18;;;;;;;17.05;11.30;;;3.50;99.90;;;;;;4984171;28;20211;-90
2021/01/11 12:15:44;;;;;;;15.80;11.23;;;3.50;99.90;;;;;;4986235;28;20286;-87
2021/01/11 12:18:10;;;;;;;15.27;9.37;;;3.50;99.90;;;;;;4990466;28;20452;-86
2021/01/11 12:20:38;;;;;;;15.57;10.20;;;3.70;99.90;;;;;;4977920;28;20779;-86
2021/01/11 12:23:04;;;;;;;16.63;8.90;;;3.10;99.90;;;;;;4977857;28;20768;-86
2021/01/11 12:25:30;;;;;;;14.00;9.97;;;3.60;99.90;;;;;;4975395;28;20198;-85
2021/01/11 12:27:56;;;;;;;14.13;9.77;;;3.80;99.90;;;;;;4984980;28;20469;-87
2021/01/11 12:30:25;;;;;;;12.50;9.10;;;3.60;99.90;;;;;;4984117;28;20202;-89
2021/01/11 12:32:55;;;;;;;15.25;9.55;;;3.60;99.90;;;;;;4976719;28;20229;-91
2021/01/11 12:35:21;;;;;;;11.67;8.80;;;3.70;99.90;;;;;;4986015;28;20226;-86
2021/01/11 12:37:50;;;;;;;13.50;9.68;;;3.50;99.90;;;;;;4983443;28;20429;-90
2021/01/11 12:40:16;;;;;;;12.25;8.88;;;3.60;99.90;;;;;;4978668;28;20269;-87
2021/01/11 12:42:42;;;;;;;15.60;9.85;;;3.60;99.90;;;;;;4984451;28;20190;-83
2021/01/11 12:45:11;;;;;;;13.17;9.33;;;3.90;99.90;;;;;;4960159;28;20215;-83
2021/01/11 12:47:39;;;;;;;12.50;8.68;;;3.60;99.90;;;;;;4978114;28;20462;-90
2021/01/11 12:50:07;;;;;;;16.55;9.60;;;3.10;99.90;;;;;;4976578;28;20217;-90
2021/01/11 12:52:33;;;;;;;14.70;9.98;;;3.60;99.90;;;;;;4983315;28;20183;-88
2021/01/11 12:55:03;;;;;;;17.00;9.38;;;3.50;99.90;;;;;;4987678;28;20195;-91
2021/01/11 12:57:33;;;;;;;18.45;10.05;;;3.40;99.90;;;;;;4984913;28;20210;-86
2021/01/11 13:00:00;;;;;;;16.50;10.30;;;3.60;99.90;;;;;;4970146;28;20191;-90
2021/01/11 13:02:26;;;;;;;17.90;10.55;;;3.60;99.90;;;;;;4995304;28;20380;-90
2021/01/11 13:04:52;;;;;;;13.85;9.32;;;3.70;99.90;;;;;;4989742;28;20184;-89
2021/01/11 13:07:18;;;;;;;17.50;9.57;;;3.80;99.90;;;;;;4975151;28;20234;-85
2021/01/11 13:09:44;;;;;;;14.83;8.87;;;3.60;99.90;;;;;;4989109;28;20430;-87